sensor_id;sensor_type;location;lat;lon;timestamp;P1;durP1;ratioP1;P2;durP2;ratioP2
49139;SDS011;34959;49.310;8.646;2022-07-22T00:02:10;6.18;;;4.70;;
49139;SDS011;34959;49.310;8.646;2022-07-22T00:04:36;5.85;;;4.78;;
49139;SDS011;34959;49.310;8.646;2022-07-22T00:07:01;5.85;;;4.53;;
49139;SDS011;34959;49.310;8.646;2022-07-22T00:09:27;5.45;;;4.18;;
49139;SDS011;34959;49.310;8.646;2022-07-22T00:11:52;10.55;;;4.50;;
49139;SDS011;34959;49.310;8.646;2022-07-22T00:14:18;6.68;;;4.75;;
49139;SDS011;34959;49.310;8.646;2022-07-22T00:16:43;5.03;;;4.25;;
49139;SDS011;34959;49.310;8.646;2022-07-22T00:19:09;6.32;;;4.05;;
49139;SDS011;34959;49.310;8.646;2022-07-22T00:21:34;6.00;;;4.50;;
49139;SDS011;34959;49.310;8.646;2022-07-22T00:24:00;5.38;;;4.13;;
49139;SDS011;34959;49.310;8.646;2022-07-22T00:26:25;5.35;;;4.55;;
49139;SDS011;34959;49.310;8.646;2022-07-22T00:28:51;5.22;;;4.35;;
49139;SDS011;34959;49.310;8.646;2022-07-22T00:31:16;4.88;;;4.40;;
49139;SDS011;34959;49.310;8.646;2022-07-22T00:33:42;4.90;;;4.22;;
49139;SDS011;34959;49.310;8.646;2022-07-22T00:36:07;4.90;;;4.20;;
49139;SDS011;34959;49.310;8.646;2022-07-22T00:38:33;5.57;;;4.43;;
49139;SDS011;34959;49.310;8.646;2022-07-22T00:40:59;5.72;;;4.20;;
49139;SDS011;34959;49.310;8.646;2022-07-22T00:43:24;4.93;;;4.40;;
49139;SDS011;34959;49.310;8.646;2022-07-22T00:45:50;5.40;;;4.60;;
49139;SDS011;34959;49.310;8.646;2022-07-22T00:48:15;7.22;;;4.65;;
49139;SDS011;34959;49.310;8.646;2022-07-22T00:50:41;5.25;;;4.22;;
49139;SDS011;34959;49.310;8.646;2022-07-22T00:53:06;5.22;;;4.70;;
49139;SDS011;34959;49.310;8.646;2022-07-22T00:55:35;5.93;;;4.20;;
49139;SDS011;34959;49.310;8.646;2022-07-22T00:58:01;5.50;;;4.30;;
49139;SDS011;34959;49.310;8.646;2022-07-22T01:00:27;5.45;;;4.32;;
49139;SDS011;34959;49.310;8.646;2022-07-22T01:02:53;5.93;;;4.28;;
49139;SDS011;34959;49.310;8.646;2022-07-22T01:05:19;5.22;;;4.18;;
49139;SDS011;34959;49.310;8.646;2022-07-22T01:07:44;5.40;;;4.40;;
49139;SDS011;34959;49.310;8.646;2022-07-22T01:10:10;5.32;;;4.05;;
49139;SDS011;34959;49.310;8.646;2022-07-22T01:12:35;5.22;;;4.20;;
49139;SDS011;34959;49.310;8.646;2022-07-22T01:15:01;5.38;;;4.55;;
49139;SDS011;34959;49.310;8.646;2022-07-22T01:17:27;6.15;;;3.80;;
49139;SDS011;34959;49.310;8.646;2022-07-22T01:19:52;5.57;;;4.20;;
49139;SDS011;34959;49.310;8.646;2022-07-22T01:22:18;4.80;;;4.30;;
49139;SDS011;34959;49.310;8.646;2022-07-22T01:24:43;6.60;;;4.60;;
49139;SDS011;34959;49.310;8.646;2022-07-22T01:27:08;4.65;;;4.25;;
49139;SDS011;34959;49.310;8.646;2022-07-22T01:29:34;5.00;;;4.00;;
49139;SDS011;34959;49.310;8.646;2022-07-22T01:31:59;4.63;;;4.13;;
49139;SDS011;34959;49.310;8.646;2022-07-22T01:34:25;4.40;;;4.00;;
49139;SDS011;34959;49.310;8.646;2022-07-22T01:36:50;4.20;;;3.80;;
49139;SDS011;34959;49.310;8.646;2022-07-22T01:39:16;4.75;;;4.13;;
49139;SDS011;34959;49.310;8.646;2022-07-22T01:41:42;4.50;;;3.90;;
49139;SDS011;34959;49.310;8.646;2022-07-22T01:44:08;5.05;;;3.72;;
49139;SDS011;34959;49.310;8.646;2022-07-22T01:46:33;5.25;;;4.30;;
49139;SDS011;34959;49.310;8.646;2022-07-22T01:48:59;5.13;;;4.45;;
49139;SDS011;34959;49.310;8.646;2022-07-22T01:51:24;4.60;;;4.10;;
49139;SDS011;34959;49.310;8.646;2022-07-22T01:53:49;3.90;;;3.50;;
49139;SDS011;34959;49.310;8.646;2022-07-22T01:56:15;4.32;;;3.92;;
49139;SDS011;34959;49.310;8.646;2022-07-22T01:58:40;5.00;;;4.20;;
49139;SDS011;34959;49.310;8.646;2022-07-22T02:01:06;4.10;;;3.67;;
49139;SDS011;34959;49.310;8.646;2022-07-22T02:03:32;4.60;;;3.90;;
49139;SDS011;34959;49.310;8.646;2022-07-22T02:05:58;5.53;;;4.20;;
49139;SDS011;34959;49.310;8.646;2022-07-22T02:08:23;4.78;;;4.28;;
49139;SDS011;34959;49.310;8.646;2022-07-22T02:10:49;4.35;;;3.70;;
49139;SDS011;34959;49.310;8.646;2022-07-22T02:13:14;4.68;;;4.05;;
49139;SDS011;34959;49.310;8.646;2022-07-22T02:15:40;5.10;;;4.40;;
49139;SDS011;34959;49.310;8.646;2022-07-22T02:18:12;4.10;;;3.70;;
49139;SDS011;34959;49.310;8.646;2022-07-22T02:20:39;4.80;;;4.07;;
49139;SDS011;34959;49.310;8.646;2022-07-22T02:23:04;4.20;;;3.80;;
49139;SDS011;34959;49.310;8.646;2022-07-22T02:25:30;4.13;;;3.72;;
49139;SDS011;34959;49.310;8.646;2022-07-22T02:27:55;4.38;;;3.70;;
49139;SDS011;34959;49.310;8.646;2022-07-22T02:30:21;4.38;;;3.95;;
49139;SDS011;34959;49.310;8.646;2022-07-22T02:32:46;4.22;;;3.83;;
49139;SDS011;34959;49.310;8.646;2022-07-22T02:35:11;5.65;;;3.80;;
49139;SDS011;34959;49.310;8.646;2022-07-22T02:37:37;5.47;;;4.00;;
49139;SDS011;34959;49.310;8.646;2022-07-22T02:40:03;4.53;;;3.70;;
49139;SDS011;34959;49.310;8.646;2022-07-22T02:42:30;4.55;;;3.45;;
49139;SDS011;34959;49.310;8.646;2022-07-22T02:44:55;3.92;;;3.63;;
49139;SDS011;34959;49.310;8.646;2022-07-22T02:47:20;4.32;;;3.92;;
49139;SDS011;34959;49.310;8.646;2022-07-22T02:49:46;4.38;;;3.85;;
49139;SDS011;34959;49.310;8.646;2022-07-22T02:52:11;4.55;;;4.07;;
49139;SDS011;34959;49.310;8.646;2022-07-22T02:54:37;4.63;;;4.10;;
49139;SDS011;34959;49.310;8.646;2022-07-22T02:57:02;4.93;;;4.03;;
49139;SDS011;34959;49.310;8.646;2022-07-22T02:59:28;5.03;;;4.25;;
49139;SDS011;34959;49.310;8.646;2022-07-22T03:01:53;4.25;;;3.80;;
49139;SDS011;34959;49.310;8.646;2022-07-22T03:04:18;4.93;;;3.95;;
49139;SDS011;34959;49.310;8.646;2022-07-22T03:06:44;4.97;;;4.47;;
49139;SDS011;34959;49.310;8.646;2022-07-22T03:09:09;3.85;;;3.45;;
49139;SDS011;34959;49.310;8.646;2022-07-22T03:11:35;4.72;;;3.45;;
49139;SDS011;34959;49.310;8.646;2022-07-22T03:14:00;5.30;;;3.90;;
49139;SDS011;34959;49.310;8.646;2022-07-22T03:16:26;4.05;;;3.38;;
49139;SDS011;34959;49.310;8.646;2022-07-22T03:18:51;3.97;;;3.47;;
49139;SDS011;34959;49.310;8.646;2022-07-22T03:21:16;5.90;;;3.58;;
49139;SDS011;34959;49.310;8.646;2022-07-22T03:23:42;5.63;;;4.07;;
49139;SDS011;34959;49.310;8.646;2022-07-22T03:26:07;4.80;;;3.90;;
49139;SDS011;34959;49.310;8.646;2022-07-22T03:28:33;4.50;;;4.00;;
49139;SDS011;34959;49.310;8.646;2022-07-22T03:30:58;4.15;;;3.65;;
49139;SDS011;34959;49.310;8.646;2022-07-22T03:33:24;5.43;;;3.67;;
49139;SDS011;34959;49.310;8.646;2022-07-22T03:35:49;5.65;;;3.85;;
49139;SDS011;34959;49.310;8.646;2022-07-22T03:38:15;6.15;;;4.15;;
49139;SDS011;34959;49.310;8.646;2022-07-22T03:40:40;4.68;;;3.50;;
49139;SDS011;34959;49.310;8.646;2022-07-22T03:43:05;5.43;;;3.88;;
49139;SDS011;34959;49.310;8.646;2022-07-22T03:45:31;3.92;;;3.53;;
49139;SDS011;34959;49.310;8.646;2022-07-22T03:47:56;4.07;;;3.45;;
49139;SDS011;34959;49.310;8.646;2022-07-22T03:50:23;4.50;;;4.10;;
49139;SDS011;34959;49.310;8.646;2022-07-22T03:52:49;4.57;;;3.80;;
49139;SDS011;34959;49.310;8.646;2022-07-22T03:55:14;4.03;;;3.65;;
49139;SDS011;34959;49.310;8.646;2022-07-22T03:57:40;4.10;;;3.70;;
49139;SDS011;34959;49.310;8.646;2022-07-22T04:00:05;5.25;;;3.90;;
49139;SDS011;34959;49.310;8.646;2022-07-22T04:02:31;4.65;;;3.75;;
49139;SDS011;34959;49.310;8.646;2022-07-22T04:04:57;4.70;;;3.60;;
49139;SDS011;34959;49.310;8.646;2022-07-22T04:07:22;5.65;;;3.63;;
49139;SDS011;34959;49.310;8.646;2022-07-22T04:09:48;5.13;;;3.88;;
49139;SDS011;34959;49.310;8.646;2022-07-22T04:12:13;5.10;;;4.28;;
49139;SDS011;34959;49.310;8.646;2022-07-22T04:14:39;4.78;;;4.07;;
49139;SDS011;34959;49.310;8.646;2022-07-22T04:17:04;5.30;;;4.07;;
49139;SDS011;34959;49.310;8.646;2022-07-22T04:19:29;5.53;;;3.90;;
49139;SDS011;34959;49.310;8.646;2022-07-22T04:21:55;4.50;;;3.92;;
49139;SDS011;34959;49.310;8.646;2022-07-22T04:24:20;4.25;;;3.67;;
49139;SDS011;34959;49.310;8.646;2022-07-22T04:26:46;4.65;;;4.10;;
49139;SDS011;34959;49.310;8.646;2022-07-22T04:29:11;4.20;;;3.67;;
49139;SDS011;34959;49.310;8.646;2022-07-22T04:31:37;4.40;;;3.80;;
49139;SDS011;34959;49.310;8.646;2022-07-22T04:34:02;4.45;;;3.83;;
49139;SDS011;34959;49.310;8.646;2022-07-22T04:36:27;5.53;;;3.90;;
49139;SDS011;34959;49.310;8.646;2022-07-22T04:38:53;5.22;;;3.72;;
49139;SDS011;34959;49.310;8.646;2022-07-22T04:41:18;6.22;;;3.67;;
49139;SDS011;34959;49.310;8.646;2022-07-22T04:43:44;4.65;;;3.97;;
49139;SDS011;34959;49.310;8.646;2022-07-22T04:46:09;4.25;;;3.72;;
49139;SDS011;34959;49.310;8.646;2022-07-22T04:48:35;5.97;;;4.00;;
49139;SDS011;34959;49.310;8.646;2022-07-22T04:51:01;5.03;;;3.80;;
49139;SDS011;34959;49.310;8.646;2022-07-22T04:53:27;4.85;;;4.03;;
49139;SDS011;34959;49.310;8.646;2022-07-22T04:55:53;4.18;;;3.78;;
49139;SDS011;34959;49.310;8.646;2022-07-22T04:58:19;5.80;;;4.10;;
49139;SDS011;34959;49.310;8.646;2022-07-22T05:00:44;4.10;;;3.47;;
49139;SDS011;34959;49.310;8.646;2022-07-22T05:03:10;4.10;;;3.65;;
49139;SDS011;34959;49.310;8.646;2022-07-22T05:05:36;4.68;;;3.72;;
49139;SDS011;34959;49.310;8.646;2022-07-22T05:08:01;5.93;;;3.95;;
49139;SDS011;34959;49.310;8.646;2022-07-22T05:10:26;4.65;;;3.83;;
49139;SDS011;34959;49.310;8.646;2022-07-22T05:12:52;4.38;;;3.80;;
49139;SDS011;34959;49.310;8.646;2022-07-22T05:15:18;6.10;;;3.70;;
49139;SDS011;34959;49.310;8.646;2022-07-22T05:17:43;4.18;;;3.78;;
49139;SDS011;34959;49.310;8.646;2022-07-22T05:20:09;5.05;;;3.97;;
49139;SDS011;34959;49.310;8.646;2022-07-22T05:22:35;3.72;;;3.42;;
49139;SDS011;34959;49.310;8.646;2022-07-22T05:25:00;5.22;;;4.03;;
49139;SDS011;34959;49.310;8.646;2022-07-22T05:27:26;4.40;;;3.60;;
49139;SDS011;34959;49.310;8.646;2022-07-22T05:29:51;4.32;;;3.45;;
49139;SDS011;34959;49.310;8.646;2022-07-22T05:32:17;3.90;;;3.40;;
49139;SDS011;34959;49.310;8.646;2022-07-22T05:34:42;4.80;;;3.92;;
49139;SDS011;34959;49.310;8.646;2022-07-22T05:37:07;4.65;;;3.33;;
49139;SDS011;34959;49.310;8.646;2022-07-22T05:39:33;5.18;;;3.42;;
49139;SDS011;34959;49.310;8.646;2022-07-22T05:41:58;4.78;;;3.55;;
49139;SDS011;34959;49.310;8.646;2022-07-22T05:44:24;4.40;;;3.38;;
49139;SDS011;34959;49.310;8.646;2022-07-22T05:46:52;4.30;;;3.63;;
49139;SDS011;34959;49.310;8.646;2022-07-22T05:49:17;3.97;;;3.58;;
49139;SDS011;34959;49.310;8.646;2022-07-22T05:51:43;4.68;;;3.50;;
49139;SDS011;34959;49.310;8.646;2022-07-22T05:54:08;4.80;;;3.83;;
49139;SDS011;34959;49.310;8.646;2022-07-22T05:56:34;8.15;;;5.18;;
49139;SDS011;34959;49.310;8.646;2022-07-22T05:59:00;7.95;;;4.60;;
49139;SDS011;34959;49.310;8.646;2022-07-22T06:01:25;5.75;;;4.75;;
49139;SDS011;34959;49.310;8.646;2022-07-22T06:03:51;4.82;;;3.80;;
49139;SDS011;34959;49.310;8.646;2022-07-22T06:06:17;4.45;;;3.40;;
49139;SDS011;34959;49.310;8.646;2022-07-22T06:08:43;3.85;;;3.13;;
49139;SDS011;34959;49.310;8.646;2022-07-22T06:11:09;3.67;;;3.05;;
49139;SDS011;34959;49.310;8.646;2022-07-22T06:13:34;3.90;;;3.05;;
49139;SDS011;34959;49.310;8.646;2022-07-22T06:16:00;3.45;;;3.10;;
49139;SDS011;34959;49.310;8.646;2022-07-22T06:18:25;5.00;;;2.50;;
49139;SDS011;34959;49.310;8.646;2022-07-22T06:20:51;3.83;;;3.03;;
49139;SDS011;34959;49.310;8.646;2022-07-22T06:23:17;7.57;;;3.35;;
49139;SDS011;34959;49.310;8.646;2022-07-22T06:25:42;6.53;;;3.50;;
49139;SDS011;34959;49.310;8.646;2022-07-22T06:28:08;6.28;;;3.70;;
49139;SDS011;34959;49.310;8.646;2022-07-22T06:30:33;4.85;;;3.58;;
49139;SDS011;34959;49.310;8.646;2022-07-22T06:32:59;5.97;;;3.47;;
49139;SDS011;34959;49.310;8.646;2022-07-22T06:35:25;4.20;;;3.42;;
49139;SDS011;34959;49.310;8.646;2022-07-22T06:37:50;4.55;;;3.35;;
49139;SDS011;34959;49.310;8.646;2022-07-22T06:40:18;3.63;;;3.17;;
49139;SDS011;34959;49.310;8.646;2022-07-22T06:42:44;4.40;;;3.30;;
49139;SDS011;34959;49.310;8.646;2022-07-22T06:45:09;4.15;;;3.25;;
49139;SDS011;34959;49.310;8.646;2022-07-22T06:47:35;4.65;;;3.22;;
49139;SDS011;34959;49.310;8.646;2022-07-22T06:50:04;4.68;;;3.58;;
49139;SDS011;34959;49.310;8.646;2022-07-22T06:52:31;4.72;;;3.40;;
49139;SDS011;34959;49.310;8.646;2022-07-22T06:54:56;5.63;;;3.30;;
49139;SDS011;34959;49.310;8.646;2022-07-22T06:57:22;4.68;;;3.40;;
49139;SDS011;34959;49.310;8.646;2022-07-22T06:59:47;4.05;;;3.08;;
49139;SDS011;34959;49.310;8.646;2022-07-22T07:02:13;4.70;;;3.42;;
49139;SDS011;34959;49.310;8.646;2022-07-22T07:04:38;3.38;;;3.08;;
49139;SDS011;34959;49.310;8.646;2022-07-22T07:07:04;3.40;;;3.00;;
49139;SDS011;34959;49.310;8.646;2022-07-22T07:09:29;3.95;;;3.28;;
49139;SDS011;34959;49.310;8.646;2022-07-22T07:11:55;5.57;;;3.65;;
49139;SDS011;34959;49.310;8.646;2022-07-22T07:14:20;4.93;;;3.33;;
49139;SDS011;34959;49.310;8.646;2022-07-22T07:16:46;4.10;;;3.58;;
49139;SDS011;34959;49.310;8.646;2022-07-22T07:19:11;4.65;;;3.58;;
49139;SDS011;34959;49.310;8.646;2022-07-22T07:21:37;3.83;;;3.40;;
49139;SDS011;34959;49.310;8.646;2022-07-22T07:24:02;3.22;;;2.90;;
49139;SDS011;34959;49.310;8.646;2022-07-22T07:26:28;3.55;;;3.00;;
49139;SDS011;34959;49.310;8.646;2022-07-22T07:28:53;4.03;;;3.30;;
49139;SDS011;34959;49.310;8.646;2022-07-22T07:31:19;4.57;;;3.30;;
49139;SDS011;34959;49.310;8.646;2022-07-22T07:33:44;3.30;;;2.80;;
49139;SDS011;34959;49.310;8.646;2022-07-22T07:36:10;5.53;;;3.50;;
49139;SDS011;34959;49.310;8.646;2022-07-22T07:38:35;3.40;;;2.95;;
49139;SDS011;34959;49.310;8.646;2022-07-22T07:41:01;4.40;;;3.20;;
49139;SDS011;34959;49.310;8.646;2022-07-22T07:43:27;4.78;;;3.13;;
49139;SDS011;34959;49.310;8.646;2022-07-22T07:45:52;4.18;;;3.38;;
49139;SDS011;34959;49.310;8.646;2022-07-22T07:48:17;3.38;;;3.08;;
49139;SDS011;34959;49.310;8.646;2022-07-22T07:50:43;5.72;;;3.35;;
49139;SDS011;34959;49.310;8.646;2022-07-22T07:53:09;5.05;;;3.47;;
49139;SDS011;34959;49.310;8.646;2022-07-22T07:55:41;4.50;;;3.47;;
49139;SDS011;34959;49.310;8.646;2022-07-22T07:58:09;4.63;;;3.42;;
49139;SDS011;34959;49.310;8.646;2022-07-22T08:00:35;3.60;;;3.05;;
49139;SDS011;34959;49.310;8.646;2022-07-22T08:03:04;7.03;;;4.00;;
49139;SDS011;34959;49.310;8.646;2022-07-22T08:05:30;4.55;;;3.50;;
49139;SDS011;34959;49.310;8.646;2022-07-22T08:07:55;5.97;;;3.42;;
49139;SDS011;34959;49.310;8.646;2022-07-22T08:10:21;4.15;;;3.40;;
49139;SDS011;34959;49.310;8.646;2022-07-22T08:12:47;6.30;;;3.50;;
49139;SDS011;34959;49.310;8.646;2022-07-22T08:15:13;4.47;;;3.75;;
49139;SDS011;34959;49.310;8.646;2022-07-22T08:17:39;5.25;;;3.75;;
49139;SDS011;34959;49.310;8.646;2022-07-22T08:20:05;6.97;;;3.65;;
49139;SDS011;34959;49.310;8.646;2022-07-22T08:22:31;4.45;;;3.65;;
49139;SDS011;34959;49.310;8.646;2022-07-22T08:24:56;8.40;;;3.47;;
49139;SDS011;34959;49.310;8.646;2022-07-22T08:27:22;3.78;;;3.35;;
49139;SDS011;34959;49.310;8.646;2022-07-22T08:29:47;7.15;;;3.20;;
49139;SDS011;34959;49.310;8.646;2022-07-22T08:32:13;5.82;;;3.50;;
49139;SDS011;34959;49.310;8.646;2022-07-22T08:34:38;5.28;;;3.40;;
49139;SDS011;34959;49.310;8.646;2022-07-22T08:37:03;5.07;;;3.67;;
49139;SDS011;34959;49.310;8.646;2022-07-22T08:39:29;3.65;;;3.30;;
49139;SDS011;34959;49.310;8.646;2022-07-22T08:41:56;4.45;;;3.35;;
49139;SDS011;34959;49.310;8.646;2022-07-22T08:44:22;4.50;;;3.80;;
49139;SDS011;34959;49.310;8.646;2022-07-22T08:46:49;4.30;;;3.53;;
49139;SDS011;34959;49.310;8.646;2022-07-22T08:49:15;5.20;;;3.63;;
49139;SDS011;34959;49.310;8.646;2022-07-22T08:51:41;5.78;;;3.13;;
49139;SDS011;34959;49.310;8.646;2022-07-22T08:54:07;6.05;;;3.28;;
49139;SDS011;34959;49.310;8.646;2022-07-22T08:56:32;5.13;;;3.90;;
49139;SDS011;34959;49.310;8.646;2022-07-22T08:58:58;5.80;;;3.40;;
49139;SDS011;34959;49.310;8.646;2022-07-22T09:01:23;4.50;;;3.42;;
49139;SDS011;34959;49.310;8.646;2022-07-22T09:03:53;4.47;;;3.28;;
49139;SDS011;34959;49.310;8.646;2022-07-22T09:06:27;3.90;;;3.40;;
49139;SDS011;34959;49.310;8.646;2022-07-22T09:09:02;3.55;;;3.17;;
49139;SDS011;34959;49.310;8.646;2022-07-22T09:11:30;5.53;;;3.55;;
49139;SDS011;34959;49.310;8.646;2022-07-22T09:13:57;5.70;;;3.78;;
49139;SDS011;34959;49.310;8.646;2022-07-22T09:16:43;6.28;;;3.65;;
49139;SDS011;34959;49.310;8.646;2022-07-22T09:19:10;5.18;;;3.67;;
49139;SDS011;34959;49.310;8.646;2022-07-22T09:21:38;4.68;;;3.63;;
49139;SDS011;34959;49.310;8.646;2022-07-22T09:24:05;4.70;;;3.50;;
49139;SDS011;34959;49.310;8.646;2022-07-22T09:26:32;5.38;;;3.38;;
49139;SDS011;34959;49.310;8.646;2022-07-22T09:29:02;4.53;;;3.70;;
49139;SDS011;34959;49.310;8.646;2022-07-22T09:31:30;3.85;;;3.38;;
49139;SDS011;34959;49.310;8.646;2022-07-22T09:33:58;4.65;;;3.55;;
49139;SDS011;34959;49.310;8.646;2022-07-22T09:36:24;5.88;;;3.40;;
49139;SDS011;34959;49.310;8.646;2022-07-22T09:38:49;4.75;;;3.22;;
49139;SDS011;34959;49.310;8.646;2022-07-22T09:41:15;6.80;;;3.95;;
49139;SDS011;34959;49.310;8.646;2022-07-22T09:43:40;4.72;;;3.75;;
49139;SDS011;34959;49.310;8.646;2022-07-22T09:46:06;5.03;;;3.47;;
49139;SDS011;34959;49.310;8.646;2022-07-22T09:48:32;4.10;;;3.58;;
49139;SDS011;34959;49.310;8.646;2022-07-22T09:50:58;6.95;;;4.00;;
49139;SDS011;34959;49.310;8.646;2022-07-22T09:53:24;3.78;;;3.38;;
49139;SDS011;34959;49.310;8.646;2022-07-22T09:55:54;4.38;;;3.95;;
49139;SDS011;34959;49.310;8.646;2022-07-22T09:58:20;4.60;;;3.53;;
49139;SDS011;34959;49.310;8.646;2022-07-22T10:00:45;4.40;;;3.47;;
49139;SDS011;34959;49.310;8.646;2022-07-22T10:03:28;4.65;;;3.67;;
49139;SDS011;34959;49.310;8.646;2022-07-22T10:05:56;3.72;;;3.30;;
49139;SDS011;34959;49.310;8.646;2022-07-22T10:08:22;4.82;;;3.35;;
49139;SDS011;34959;49.310;8.646;2022-07-22T10:10:52;5.22;;;3.50;;
49139;SDS011;34959;49.310;8.646;2022-07-22T10:13:18;4.15;;;3.70;;
49139;SDS011;34959;49.310;8.646;2022-07-22T10:15:44;5.55;;;3.20;;
49139;SDS011;34959;49.310;8.646;2022-07-22T10:18:15;4.30;;;3.70;;
49139;SDS011;34959;49.310;8.646;2022-07-22T10:20:42;4.40;;;3.35;;
49139;SDS011;34959;49.310;8.646;2022-07-22T10:23:08;6.68;;;3.72;;
49139;SDS011;34959;49.310;8.646;2022-07-22T10:28:19;9.43;;;3.70;;
49139;SDS011;34959;49.310;8.646;2022-07-22T10:33:53;5.97;;;3.85;;
49139;SDS011;34959;49.310;8.646;2022-07-22T10:36:53;3.97;;;3.60;;
49139;SDS011;34959;49.310;8.646;2022-07-22T10:39:12;4.75;;;3.40;;
49139;SDS011;34959;49.310;8.646;2022-07-22T10:41:40;3.88;;;3.45;;
49139;SDS011;34959;49.310;8.646;2022-07-22T10:44:09;4.93;;;3.67;;
49139;SDS011;34959;49.310;8.646;2022-07-22T10:46:51;4.15;;;3.22;;
49139;SDS011;34959;49.310;8.646;2022-07-22T10:49:23;5.53;;;3.95;;
49139;SDS011;34959;49.310;8.646;2022-07-22T10:54:31;4.20;;;3.63;;
49139;SDS011;34959;49.310;8.646;2022-07-22T10:56:57;4.65;;;3.45;;
49139;SDS011;34959;49.310;8.646;2022-07-22T10:59:25;5.00;;;3.70;;
49139;SDS011;34959;49.310;8.646;2022-07-22T11:01:50;4.60;;;3.30;;
49139;SDS011;34959;49.310;8.646;2022-07-22T11:04:21;5.93;;;3.22;;
49139;SDS011;34959;49.310;8.646;2022-07-22T11:06:51;5.22;;;3.50;;
49139;SDS011;34959;49.310;8.646;2022-07-22T11:09:22;4.60;;;3.55;;
49139;SDS011;34959;49.310;8.646;2022-07-22T11:11:52;4.03;;;3.55;;
49139;SDS011;34959;49.310;8.646;2022-07-22T11:14:23;4.22;;;3.63;;
49139;SDS011;34959;49.310;8.646;2022-07-22T11:16:51;4.25;;;3.45;;
49139;SDS011;34959;49.310;8.646;2022-07-22T11:19:19;4.70;;;3.70;;
49139;SDS011;34959;49.310;8.646;2022-07-22T11:21:48;4.15;;;3.75;;
49139;SDS011;34959;49.310;8.646;2022-07-22T11:24:15;4.32;;;3.70;;
49139;SDS011;34959;49.310;8.646;2022-07-22T11:26:42;4.07;;;3.67;;
49139;SDS011;34959;49.310;8.646;2022-07-22T11:29:15;4.47;;;3.67;;
49139;SDS011;34959;49.310;8.646;2022-07-22T11:31:49;5.38;;;3.50;;
49139;SDS011;34959;49.310;8.646;2022-07-22T11:34:15;3.90;;;3.50;;
49139;SDS011;34959;49.310;8.646;2022-07-22T11:36:42;3.80;;;3.30;;
49139;SDS011;34959;49.310;8.646;2022-07-22T11:39:10;3.70;;;3.30;;
49139;SDS011;34959;49.310;8.646;2022-07-22T11:41:36;5.05;;;3.95;;
49139;SDS011;34959;49.310;8.646;2022-07-22T11:44:02;3.95;;;3.58;;
49139;SDS011;34959;49.310;8.646;2022-07-22T11:46:28;5.22;;;3.92;;
49139;SDS011;34959;49.310;8.646;2022-07-22T11:48:54;4.55;;;3.40;;
49139;SDS011;34959;49.310;8.646;2022-07-22T11:51:26;4.90;;;3.47;;
49139;SDS011;34959;49.310;8.646;2022-07-22T11:53:53;3.92;;;3.55;;
49139;SDS011;34959;49.310;8.646;2022-07-22T11:56:18;4.97;;;4.28;;
49139;SDS011;34959;49.310;8.646;2022-07-22T11:58:45;4.20;;;3.63;;
49139;SDS011;34959;49.310;8.646;2022-07-22T12:01:12;5.18;;;4.00;;
49139;SDS011;34959;49.310;8.646;2022-07-22T12:03:40;4.15;;;3.75;;
49139;SDS011;34959;49.310;8.646;2022-07-22T12:06:10;4.88;;;3.80;;
49139;SDS011;34959;49.310;8.646;2022-07-22T12:08:44;4.13;;;3.60;;
49139;SDS011;34959;49.310;8.646;2022-07-22T12:11:15;4.25;;;3.70;;
49139;SDS011;34959;49.310;8.646;2022-07-22T12:13:42;6.10;;;4.20;;
49139;SDS011;34959;49.310;8.646;2022-07-22T12:16:25;4.30;;;3.90;;
49139;SDS011;34959;49.310;8.646;2022-07-22T12:18:53;3.85;;;3.45;;
49139;SDS011;34959;49.310;8.646;2022-07-22T12:21:24;4.30;;;3.90;;
49139;SDS011;34959;49.310;8.646;2022-07-22T12:32:07;7.63;;;3.80;;
49139;SDS011;34959;49.310;8.646;2022-07-22T12:34:38;6.30;;;3.88;;
49139;SDS011;34959;49.310;8.646;2022-07-22T12:37:17;6.35;;;3.95;;
49139;SDS011;34959;49.310;8.646;2022-07-22T12:42:41;7.00;;;3.45;;
49139;SDS011;34959;49.310;8.646;2022-07-22T12:45:14;5.07;;;3.28;;
49139;SDS011;34959;49.310;8.646;2022-07-22T12:47:44;5.40;;;3.65;;
49139;SDS011;34959;49.310;8.646;2022-07-22T12:50:20;7.72;;;4.00;;
49139;SDS011;34959;49.310;8.646;2022-07-22T12:52:54;4.68;;;3.95;;
49139;SDS011;34959;49.310;8.646;2022-07-22T12:55:19;4.35;;;3.72;;
49139;SDS011;34959;49.310;8.646;2022-07-22T12:57:45;6.85;;;4.28;;
49139;SDS011;34959;49.310;8.646;2022-07-22T13:00:15;4.00;;;3.60;;
49139;SDS011;34959;49.310;8.646;2022-07-22T13:02:44;5.85;;;4.13;;
49139;SDS011;34959;49.310;8.646;2022-07-22T13:05:09;4.80;;;3.75;;
49139;SDS011;34959;49.310;8.646;2022-07-22T13:07:35;4.03;;;3.63;;
49139;SDS011;34959;49.310;8.646;2022-07-22T13:10:00;4.35;;;3.95;;
49139;SDS011;34959;49.310;8.646;2022-07-22T13:12:26;6.75;;;3.80;;
49139;SDS011;34959;49.310;8.646;2022-07-22T13:14:51;4.10;;;3.70;;
49139;SDS011;34959;49.310;8.646;2022-07-22T13:17:16;5.10;;;3.65;;
49139;SDS011;34959;49.310;8.646;2022-07-22T13:19:42;4.35;;;3.47;;
49139;SDS011;34959;49.310;8.646;2022-07-22T13:22:11;4.22;;;3.83;;
49139;SDS011;34959;49.310;8.646;2022-07-22T13:24:36;5.85;;;3.63;;
49139;SDS011;34959;49.310;8.646;2022-07-22T13:27:02;3.97;;;3.53;;
49139;SDS011;34959;49.310;8.646;2022-07-22T13:29:27;4.22;;;3.75;;
49139;SDS011;34959;49.310;8.646;2022-07-22T13:31:53;4.20;;;3.75;;
49139;SDS011;34959;49.310;8.646;2022-07-22T13:34:18;7.88;;;3.60;;
49139;SDS011;34959;49.310;8.646;2022-07-22T13:36:44;4.10;;;3.63;;
49139;SDS011;34959;49.310;8.646;2022-07-22T13:39:09;4.50;;;3.42;;
49139;SDS011;34959;49.310;8.646;2022-07-22T13:41:35;4.40;;;3.65;;
49139;SDS011;34959;49.310;8.646;2022-07-22T13:44:00;4.38;;;3.90;;
49139;SDS011;34959;49.310;8.646;2022-07-22T13:46:25;5.28;;;3.58;;
49139;SDS011;34959;49.310;8.646;2022-07-22T13:48:51;3.80;;;3.40;;
49139;SDS011;34959;49.310;8.646;2022-07-22T13:51:18;4.05;;;3.65;;
49139;SDS011;34959;49.310;8.646;2022-07-22T13:53:43;4.18;;;3.78;;
49139;SDS011;34959;49.310;8.646;2022-07-22T13:56:09;3.55;;;3.25;;
49139;SDS011;34959;49.310;8.646;2022-07-22T13:58:35;4.57;;;3.50;;
49139;SDS011;34959;49.310;8.646;2022-07-22T14:01:03;4.45;;;3.38;;
49139;SDS011;34959;49.310;8.646;2022-07-22T14:03:28;3.90;;;3.20;;
49139;SDS011;34959;49.310;8.646;2022-07-22T14:05:54;4.75;;;3.60;;
49139;SDS011;34959;49.310;8.646;2022-07-22T14:08:22;3.78;;;3.47;;
49139;SDS011;34959;49.310;8.646;2022-07-22T14:10:48;5.20;;;3.50;;
49139;SDS011;34959;49.310;8.646;2022-07-22T14:13:13;3.70;;;3.40;;
49139;SDS011;34959;49.310;8.646;2022-07-22T14:15:39;4.45;;;3.40;;
49139;SDS011;34959;49.310;8.646;2022-07-22T14:18:04;4.10;;;3.38;;
49139;SDS011;34959;49.310;8.646;2022-07-22T14:20:32;3.92;;;3.50;;
49139;SDS011;34959;49.310;8.646;2022-07-22T14:22:58;4.20;;;3.55;;
49139;SDS011;34959;49.310;8.646;2022-07-22T14:25:23;4.47;;;3.53;;
49139;SDS011;34959;49.310;8.646;2022-07-22T14:27:49;4.15;;;3.53;;
49139;SDS011;34959;49.310;8.646;2022-07-22T14:30:14;4.50;;;3.55;;
49139;SDS011;34959;49.310;8.646;2022-07-22T14:32:40;3.65;;;3.20;;
49139;SDS011;34959;49.310;8.646;2022-07-22T14:35:05;3.47;;;3.17;;
49139;SDS011;34959;49.310;8.646;2022-07-22T14:37:31;3.40;;;3.10;;
49139;SDS011;34959;49.310;8.646;2022-07-22T14:39:57;3.90;;;3.50;;
49139;SDS011;34959;49.310;8.646;2022-07-22T14:42:23;4.00;;;3.42;;
49139;SDS011;34959;49.310;8.646;2022-07-22T14:44:49;4.22;;;3.63;;
49139;SDS011;34959;49.310;8.646;2022-07-22T14:47:17;4.00;;;3.45;;
49139;SDS011;34959;49.310;8.646;2022-07-22T14:49:42;3.70;;;3.40;;
49139;SDS011;34959;49.310;8.646;2022-07-22T14:52:08;3.90;;;3.50;;
49139;SDS011;34959;49.310;8.646;2022-07-22T14:54:33;3.42;;;3.10;;
49139;SDS011;34959;49.310;8.646;2022-07-22T14:56:59;3.80;;;3.30;;
49139;SDS011;34959;49.310;8.646;2022-07-22T14:59:24;3.58;;;2.97;;
49139;SDS011;34959;49.310;8.646;2022-07-22T15:01:53;3.60;;;3.30;;
49139;SDS011;34959;49.310;8.646;2022-07-22T15:04:19;3.60;;;3.30;;